createdAt,value
2022-12-31T00:00:02.364Z,11.00
2022-12-31T00:02:31.447Z,11.02
2022-12-31T00:04:57.816Z,11.00
2022-12-31T00:07:24.179Z,10.99
2022-12-31T00:09:50.520Z,10.99
2022-12-31T00:12:16.827Z,11.00
2022-12-31T00:14:43.176Z,11.02
2022-12-31T00:17:09.637Z,11.04
2022-12-31T00:19:36.042Z,11.02
2022-12-31T00:22:02.355Z,11.06
2022-12-31T00:24:30.933Z,11.07
2022-12-31T00:26:57.475Z,11.08
2022-12-31T00:29:23.919Z,11.09
2022-12-31T00:31:50.222Z,11.10
2022-12-31T00:34:16.550Z,11.07
2022-12-31T00:36:43.043Z,11.12
2022-12-31T00:39:10.259Z,11.08
2022-12-31T00:41:36.942Z,11.17
2022-12-31T00:44:03.314Z,11.18
2022-12-31T00:46:29.916Z,11.17
2022-12-31T00:48:56.318Z,11.19
2022-12-31T00:51:27.144Z,11.18
2022-12-31T00:53:54.013Z,11.21
2022-12-31T00:56:25.421Z,11.21
2022-12-31T00:58:52.187Z,11.23
2022-12-31T01:01:27.890Z,11.25
2022-12-31T01:03:58.373Z,11.25
2022-12-31T01:06:24.990Z,11.25
2022-12-31T01:08:52.224Z,11.28
2022-12-31T01:11:19.346Z,11.32
2022-12-31T01:14:03.905Z,11.37
2022-12-31T01:16:53.566Z,11.43
2022-12-31T01:19:28.225Z,11.47
2022-12-31T01:21:55.884Z,11.55
2022-12-31T01:24:22.377Z,11.55
2022-12-31T01:26:49.069Z,11.60
2022-12-31T01:29:16.904Z,11.60
2022-12-31T01:31:43.308Z,11.61
2022-12-31T01:34:09.742Z,11.56
2022-12-31T01:36:37.144Z,11.68
2022-12-31T01:39:05.844Z,11.73
2022-12-31T01:41:35.764Z,11.75
2022-12-31T01:44:11.183Z,11.76
2022-12-31T01:47:02.556Z,11.79
2022-12-31T01:49:28.788Z,11.78
2022-12-31T01:52:22.617Z,11.92
2022-12-31T01:55:07.861Z,11.91
2022-12-31T01:57:36.893Z,11.86
2022-12-31T02:00:05.631Z,11.93
2022-12-31T02:02:32.878Z,11.96
2022-12-31T02:05:02.069Z,11.99
2022-12-31T02:07:28.733Z,11.92
2022-12-31T02:09:55.166Z,11.95
2022-12-31T02:12:21.652Z,12.04
2022-12-31T02:14:51.579Z,12.04
2022-12-31T02:17:42.408Z,12.07
2022-12-31T02:20:29.587Z,12.10
2022-12-31T02:23:14.763Z,12.06
2022-12-31T02:25:56.237Z,12.16
2022-12-31T02:28:28.618Z,12.09
2022-12-31T02:31:07.156Z,12.10
2022-12-31T02:33:42.612Z,12.18
2022-12-31T02:36:15.014Z,12.12
2022-12-31T02:38:44.482Z,12.17
2022-12-31T02:41:35.613Z,12.21
2022-12-31T02:44:03.125Z,12.27
2022-12-31T02:46:44.757Z,12.34
2022-12-31T02:49:20.736Z,12.26
2022-12-31T02:52:06.399Z,12.27
2022-12-31T02:55:03.073Z,12.28
2022-12-31T02:57:40.106Z,12.34
2022-12-31T03:00:29.358Z,12.35
2022-12-31T03:02:57.888Z,12.46
2022-12-31T03:05:29.269Z,12.54
2022-12-31T03:07:55.821Z,12.50
2022-12-31T03:10:22.253Z,12.46
2022-12-31T03:12:49.000Z,12.47
2022-12-31T03:15:35.701Z,12.49
2022-12-31T03:18:12.707Z,12.49
2022-12-31T03:21:06.855Z,12.51
2022-12-31T03:23:36.524Z,12.53
2022-12-31T03:26:09.985Z,12.51
2022-12-31T03:28:40.779Z,12.58
2022-12-31T03:31:07.557Z,12.57
2022-12-31T03:33:37.125Z,12.54
2022-12-31T03:36:12.323Z,12.60
2022-12-31T03:38:38.882Z,12.52
2022-12-31T03:41:05.640Z,12.55
2022-12-31T03:43:32.130Z,12.57
2022-12-31T03:45:59.712Z,12.53
2022-12-31T03:48:26.157Z,12.66
2022-12-31T03:50:52.607Z,12.56
2022-12-31T03:53:19.432Z,12.64
2022-12-31T03:55:49.871Z,12.53
2022-12-31T03:58:16.175Z,12.48
2022-12-31T04:00:45.233Z,12.56
2022-12-31T04:03:11.591Z,12.56
2022-12-31T04:05:37.996Z,12.53
2022-12-31T04:08:04.827Z,12.62
2022-12-31T04:10:31.132Z,12.52
2022-12-31T04:13:00.125Z,12.60
2022-12-31T04:15:26.460Z,12.62
2022-12-31T04:17:52.764Z,12.68
2022-12-31T04:20:19.410Z,12.61
2022-12-31T04:22:45.710Z,12.65
2022-12-31T04:25:12.806Z,12.66
2022-12-31T04:27:40.843Z,12.65
2022-12-31T04:30:09.612Z,12.64
2022-12-31T04:32:35.991Z,12.64
2022-12-31T04:35:02.310Z,12.59
2022-12-31T04:37:28.740Z,12.65
2022-12-31T04:39:57.937Z,12.68
2022-12-31T04:42:28.323Z,12.73
2022-12-31T04:44:54.625Z,12.79
2022-12-31T04:47:23.843Z,12.77
2022-12-31T04:49:50.548Z,12.72
2022-12-31T04:52:16.963Z,12.73
2022-12-31T04:54:43.255Z,12.76
2022-12-31T04:57:09.701Z,12.82
2022-12-31T04:59:36.105Z,12.92
2022-12-31T05:02:02.585Z,12.92
2022-12-31T05:04:29.245Z,12.88
2022-12-31T05:06:55.559Z,12.80
2022-12-31T05:09:23.959Z,12.88
2022-12-31T05:11:50.314Z,12.90
2022-12-31T05:14:17.124Z,12.99
2022-12-31T05:16:43.471Z,13.12
2022-12-31T05:19:09.872Z,13.05
2022-12-31T05:21:36.667Z,13.01
2022-12-31T05:24:03.088Z,13.07
2022-12-31T05:26:29.436Z,13.14
2022-12-31T05:28:56.458Z,13.08
2022-12-31T05:31:22.955Z,13.01
2022-12-31T05:33:49.272Z,13.05
2022-12-31T05:36:15.722Z,13.10
2022-12-31T05:38:42.323Z,13.08
2022-12-31T05:41:08.708Z,13.05
2022-12-31T05:43:35.243Z,13.04
2022-12-31T05:46:03.093Z,13.06
2022-12-31T05:48:30.305Z,13.03
2022-12-31T05:50:57.225Z,13.00
2022-12-31T05:53:23.552Z,12.98
2022-12-31T05:55:49.850Z,13.01
2022-12-31T05:58:16.503Z,12.99
2022-12-31T06:00:44.214Z,13.07
2022-12-31T06:03:10.761Z,13.06
2022-12-31T06:05:42.625Z,13.08
2022-12-31T06:08:11.272Z,13.14
2022-12-31T06:10:38.625Z,13.17
2022-12-31T06:13:05.037Z,13.12
2022-12-31T06:15:31.465Z,13.12
2022-12-31T06:17:57.827Z,13.18
2022-12-31T06:20:24.204Z,13.21
2022-12-31T06:22:50.531Z,13.19
2022-12-31T06:25:16.832Z,13.24
2022-12-31T06:27:43.131Z,13.14
2022-12-31T06:30:10.564Z,13.38
2022-12-31T06:32:36.877Z,13.29
2022-12-31T06:35:03.422Z,13.22
2022-12-31T06:37:29.722Z,13.29
2022-12-31T06:39:56.028Z,13.30
2022-12-31T06:42:22.336Z,13.29
2022-12-31T06:44:48.632Z,13.22
2022-12-31T06:47:14.923Z,13.18
2022-12-31T06:49:41.235Z,13.22
2022-12-31T06:52:08.220Z,13.23
2022-12-31T06:54:34.813Z,13.24
2022-12-31T06:57:01.396Z,13.23
2022-12-31T06:59:29.426Z,13.30
2022-12-31T07:02:11.285Z,13.28
2022-12-31T07:04:55.057Z,13.33
2022-12-31T07:07:26.175Z,13.36
2022-12-31T07:10:03.609Z,13.38
2022-12-31T07:12:48.660Z,13.36
2022-12-31T07:15:25.496Z,13.39
2022-12-31T07:18:04.906Z,13.37
2022-12-31T07:20:31.490Z,13.44
2022-12-31T07:22:58.025Z,13.41
2022-12-31T07:25:24.711Z,13.42
2022-12-31T07:28:14.877Z,13.52
2022-12-31T07:31:04.208Z,13.59
2022-12-31T07:33:30.535Z,13.50
2022-12-31T07:36:22.313Z,13.56
2022-12-31T07:39:15.265Z,13.54
2022-12-31T07:42:13.257Z,13.63
2022-12-31T07:44:56.130Z,13.56
2022-12-31T07:47:24.859Z,13.59
2022-12-31T07:49:52.189Z,13.56
2022-12-31T07:52:19.152Z,13.49
2022-12-31T07:54:45.894Z,13.61
2022-12-31T07:57:14.132Z,13.58
2022-12-31T07:59:48.317Z,13.67
2022-12-31T08:02:35.819Z,13.75
2022-12-31T08:05:14.504Z,13.72
2022-12-31T08:07:57.770Z,13.79
2022-12-31T08:10:30.589Z,13.83
2022-12-31T08:13:02.024Z,13.83
2022-12-31T08:15:30.702Z,13.83
2022-12-31T08:17:57.748Z,13.76
2022-12-31T08:20:25.677Z,13.75
2022-12-31T08:23:04.131Z,13.87
2022-12-31T08:26:18.058Z,13.84
2022-12-31T08:28:56.117Z,13.86
2022-12-31T08:31:44.950Z,13.86
2022-12-31T08:34:31.342Z,13.84
2022-12-31T08:37:16.005Z,13.86
2022-12-31T08:40:15.269Z,13.81
2022-12-31T08:43:03.466Z,13.80
2022-12-31T08:45:32.752Z,13.80
2022-12-31T08:48:23.940Z,13.86
2022-12-31T08:50:50.572Z,13.79
2022-12-31T08:53:17.174Z,13.88
2022-12-31T08:55:46.438Z,13.82
2022-12-31T08:58:34.117Z,14.02
2022-12-31T09:01:01.479Z,14.02
2022-12-31T09:03:56.844Z,14.04
2022-12-31T09:06:31.358Z,14.04
2022-12-31T09:09:21.615Z,14.04
2022-12-31T09:11:57.213Z,14.06
2022-12-31T09:14:47.279Z,14.07
2022-12-31T09:17:46.647Z,14.12
2022-12-31T09:20:22.752Z,14.21
2022-12-31T09:22:50.109Z,14.27
2022-12-31T09:25:18.764Z,14.22
2022-12-31T09:28:12.337Z,14.31
2022-12-31T09:30:56.872Z,14.21
2022-12-31T09:34:00.846Z,14.20
2022-12-31T09:36:36.266Z,14.20
2022-12-31T09:39:14.745Z,14.23
2022-12-31T09:42:18.772Z,14.26
2022-12-31T09:45:26.537Z,14.32
2022-12-31T09:48:22.149Z,14.47
2022-12-31T09:51:10.370Z,14.50
2022-12-31T09:54:00.801Z,14.56
2022-12-31T09:56:37.011Z,14.63
2022-12-31T09:59:24.286Z,14.62
2022-12-31T10:02:14.502Z,14.68
2022-12-31T10:05:03.462Z,14.66
2022-12-31T10:07:40.646Z,14.69
2022-12-31T10:10:30.477Z,14.82
2022-12-31T10:13:36.304Z,14.80
2022-12-31T10:16:12.414Z,14.79
2022-12-31T10:19:09.641Z,14.83
2022-12-31T10:22:10.761Z,14.82
2022-12-31T10:25:18.689Z,14.91
2022-12-31T10:28:00.057Z,15.03
2022-12-31T10:30:34.290Z,15.09
2022-12-31T10:33:41.284Z,15.25
2022-12-31T10:36:39.945Z,15.28
2022-12-31T10:39:24.288Z,15.37
2022-12-31T10:42:14.449Z,15.37
2022-12-31T10:45:26.285Z,15.31
2022-12-31T10:48:01.660Z,15.33
2022-12-31T10:50:56.053Z,15.23
2022-12-31T10:53:30.367Z,15.19
2022-12-31T10:56:07.796Z,15.09
2022-12-31T10:59:19.348Z,15.02
2022-12-31T11:01:48.721Z,15.00
2022-12-31T11:04:36.681Z,15.01
2022-12-31T11:07:21.390Z,15.00
2022-12-31T11:10:25.421Z,14.99
2022-12-31T11:13:23.385Z,14.91
2022-12-31T11:16:27.352Z,14.93
2022-12-31T11:19:07.156Z,14.91
2022-12-31T11:21:52.133Z,14.95
2022-12-31T11:24:49.513Z,15.01
2022-12-31T11:27:34.309Z,14.95
2022-12-31T11:30:13.760Z,15.01
2022-12-31T11:32:52.239Z,14.97
2022-12-31T11:35:49.641Z,14.97
2022-12-31T11:38:24.325Z,15.02
2022-12-31T11:41:11.429Z,15.11
2022-12-31T11:43:53.393Z,15.17
2022-12-31T11:47:07.164Z,15.29
2022-12-31T11:50:11.095Z,15.35
2022-12-31T11:52:49.662Z,15.47
2022-12-31T11:55:30.190Z,15.61
2022-12-31T11:58:01.719Z,15.69
2022-12-31T12:00:30.180Z,15.74
2022-12-31T12:03:01.084Z,15.88
2022-12-31T12:05:28.175Z,15.88
2022-12-31T12:07:55.051Z,15.90
2022-12-31T12:10:36.463Z,16.03
2022-12-31T12:13:16.427Z,15.99
2022-12-31T12:15:47.918Z,16.01
2022-12-31T12:18:30.083Z,16.02
2022-12-31T12:21:08.098Z,15.92
2022-12-31T12:23:34.539Z,15.88
2022-12-31T12:26:00.890Z,15.90
2022-12-31T12:28:30.000Z,15.94
2022-12-31T12:31:02.404Z,15.99
2022-12-31T12:33:40.775Z,15.92
2022-12-31T12:36:09.816Z,16.01
2022-12-31T12:38:37.028Z,15.98
2022-12-31T12:41:06.868Z,15.87
2022-12-31T12:43:36.106Z,15.81
2022-12-31T12:46:05.976Z,15.73
2022-12-31T12:48:41.212Z,15.71
2022-12-31T12:51:16.332Z,15.73
2022-12-31T12:54:08.021Z,15.88
2022-12-31T12:56:57.799Z,15.92
2022-12-31T12:59:56.023Z,15.88
2022-12-31T13:02:53.773Z,15.90
2022-12-31T13:05:32.444Z,15.90
2022-12-31T13:08:23.215Z,16.00
2022-12-31T13:11:15.598Z,15.94
2022-12-31T13:14:04.244Z,15.93
2022-12-31T13:16:37.870Z,15.91
2022-12-31T13:19:18.854Z,15.88
2022-12-31T13:22:04.380Z,15.78
2022-12-31T13:24:51.687Z,15.75
2022-12-31T13:27:33.885Z,15.67
2022-12-31T13:30:02.619Z,15.62
2022-12-31T13:32:42.246Z,15.62
2022-12-31T13:35:29.542Z,15.55
2022-12-31T13:38:22.616Z,15.55
2022-12-31T13:41:00.671Z,15.56
2022-12-31T13:43:50.638Z,15.59
2022-12-31T13:46:33.981Z,15.45
2022-12-31T13:49:04.817Z,15.35
2022-12-31T13:51:40.680Z,15.36
2022-12-31T13:54:21.803Z,15.39
2022-12-31T13:56:50.057Z,15.30
2022-12-31T13:59:22.227Z,15.22
2022-12-31T14:02:01.174Z,15.19
2022-12-31T14:04:33.395Z,15.15
2022-12-31T14:07:10.235Z,15.08
2022-12-31T14:09:37.689Z,15.03
2022-12-31T14:12:43.922Z,14.96
2022-12-31T14:15:47.816Z,14.96
2022-12-31T14:18:39.376Z,14.93
2022-12-31T14:21:09.150Z,14.88
2022-12-31T14:24:06.584Z,14.81
2022-12-31T14:26:37.705Z,14.79
2022-12-31T14:29:15.407Z,14.78
2022-12-31T14:31:47.855Z,14.73
2022-12-31T14:34:26.037Z,14.76
2022-12-31T14:37:04.082Z,14.64
2022-12-31T14:39:46.581Z,14.64
2022-12-31T14:42:28.508Z,14.62
2022-12-31T14:44:54.797Z,14.62
2022-12-31T14:47:32.862Z,14.60
2022-12-31T14:50:15.401Z,14.55
2022-12-31T14:52:51.086Z,14.50
2022-12-31T14:55:30.080Z,14.51
2022-12-31T14:58:26.547Z,14.41
2022-12-31T15:01:04.669Z,14.41
2022-12-31T15:03:31.074Z,14.38
2022-12-31T15:06:07.191Z,14.34
2022-12-31T15:09:07.924Z,14.36
2022-12-31T15:11:46.857Z,14.33
2022-12-31T15:14:42.061Z,14.32
2022-12-31T15:17:23.633Z,14.25
2022-12-31T15:20:17.430Z,14.20
2022-12-31T15:22:49.565Z,14.14
2022-12-31T15:25:40.732Z,14.17
2022-12-31T15:28:26.080Z,14.13
2022-12-31T15:30:55.885Z,14.10
2022-12-31T15:33:31.081Z,14.08
2022-12-31T15:35:58.097Z,14.06
2022-12-31T15:38:35.249Z,13.99
2022-12-31T15:41:18.194Z,13.99
2022-12-31T15:44:08.416Z,13.98
2022-12-31T15:46:40.551Z,14.06
2022-12-31T15:49:23.027Z,14.01
2022-12-31T15:52:01.280Z,14.05
2022-12-31T15:54:41.905Z,14.03
2022-12-31T15:57:16.993Z,14.00
2022-12-31T15:59:44.650Z,14.03
2022-12-31T16:02:24.420Z,14.03
2022-12-31T16:04:52.329Z,14.00
2022-12-31T16:07:18.869Z,14.07
2022-12-31T16:09:53.349Z,14.04
2022-12-31T16:12:27.763Z,14.05
2022-12-31T16:14:58.851Z,14.12
2022-12-31T16:17:34.452Z,14.13
2022-12-31T16:20:20.109Z,14.13
2022-12-31T16:22:52.867Z,14.06
2022-12-31T16:25:30.542Z,14.09
2022-12-31T16:27:58.121Z,14.10
2022-12-31T16:30:29.275Z,14.18
2022-12-31T16:33:00.163Z,14.24
2022-12-31T16:35:31.019Z,14.20
2022-12-31T16:38:18.026Z,14.18
2022-12-31T16:41:02.599Z,14.10
2022-12-31T16:43:39.176Z,14.10
2022-12-31T16:46:14.259Z,14.10
2022-12-31T16:48:45.649Z,14.08
2022-12-31T16:51:19.730Z,14.02
2022-12-31T16:53:47.318Z,14.08
2022-12-31T16:56:23.140Z,14.07
2022-12-31T16:58:51.749Z,14.05
2022-12-31T17:01:23.557Z,13.98
2022-12-31T17:03:57.976Z,14.01
2022-12-31T17:06:26.965Z,13.95
2022-12-31T17:08:54.671Z,13.90
2022-12-31T17:11:28.585Z,13.90
2022-12-31T17:14:05.580Z,13.93
2022-12-31T17:16:34.015Z,13.96
2022-12-31T17:19:00.430Z,13.91
2022-12-31T17:21:29.865Z,13.91
2022-12-31T17:24:01.847Z,13.91
2022-12-31T17:26:31.070Z,13.87
2022-12-31T17:29:00.013Z,13.82
2022-12-31T17:31:32.397Z,13.94
2022-12-31T17:34:19.577Z,13.95
2022-12-31T17:37:11.572Z,13.90
2022-12-31T17:39:46.635Z,13.92
2022-12-31T17:42:22.372Z,13.89
2022-12-31T17:44:49.018Z,13.88
2022-12-31T17:47:15.372Z,13.84
2022-12-31T17:49:45.578Z,13.89
2022-12-31T17:52:14.344Z,13.85
2022-12-31T17:54:41.333Z,13.85
2022-12-31T17:57:21.464Z,13.92
2022-12-31T17:59:47.825Z,13.88
2022-12-31T18:02:14.269Z,13.89
2022-12-31T18:04:40.618Z,13.88
2022-12-31T18:07:06.925Z,13.85
2022-12-31T18:09:33.226Z,13.92
2022-12-31T18:12:02.006Z,13.90
2022-12-31T18:14:28.457Z,13.85
2022-12-31T18:16:54.761Z,13.88
2022-12-31T18:19:54.155Z,13.88
2022-12-31T18:22:13.117Z,13.90
2022-12-31T18:24:39.579Z,13.91
2022-12-31T18:27:15.041Z,13.87
2022-12-31T18:29:41.401Z,13.81
2022-12-31T18:32:19.175Z,13.83
2022-12-31T18:34:45.529Z,13.81
2022-12-31T18:37:17.884Z,13.79
2022-12-31T18:39:48.008Z,13.79
2022-12-31T18:42:16.520Z,13.78
2022-12-31T18:44:43.943Z,13.85
2022-12-31T18:47:15.836Z,13.82
2022-12-31T18:49:42.924Z,13.76
2022-12-31T18:52:14.144Z,13.74
2022-12-31T18:54:40.949Z,13.71
2022-12-31T18:57:07.265Z,13.69
2022-12-31T18:59:33.572Z,13.64
2022-12-31T19:02:00.080Z,13.65
2022-12-31T19:04:28.333Z,13.56
2022-12-31T19:06:55.254Z,13.57
2022-12-31T19:12:12.534Z,13.51
2022-12-31T19:14:38.870Z,13.52
2022-12-31T19:19:30.473Z,13.43
2022-12-31T19:21:56.875Z,13.43
2022-12-31T19:24:27.340Z,13.40
2022-12-31T19:26:54.432Z,13.39
2022-12-31T19:29:25.939Z,13.38
2022-12-31T19:31:52.500Z,13.42
2022-12-31T19:34:18.861Z,13.38
2022-12-31T19:36:45.438Z,13.36
2022-12-31T19:39:17.596Z,13.37
2022-12-31T19:41:44.563Z,13.34
2022-12-31T19:44:16.257Z,13.30
2022-12-31T19:46:42.966Z,13.38
2022-12-31T19:49:13.188Z,13.38
2022-12-31T19:51:39.783Z,13.33
2022-12-31T19:54:06.764Z,13.33
2022-12-31T19:56:33.098Z,13.26
2022-12-31T19:59:07.075Z,13.23
2022-12-31T20:01:33.785Z,13.29
2022-12-31T20:04:00.232Z,13.39
2022-12-31T20:06:26.564Z,13.29
2022-12-31T20:08:52.877Z,13.37
2022-12-31T20:11:21.361Z,13.42
2022-12-31T20:13:49.099Z,13.32
2022-12-31T20:16:18.122Z,13.33
2022-12-31T20:18:46.115Z,13.34
2022-12-31T20:21:21.547Z,13.31
2022-12-31T20:23:49.434Z,13.29
2022-12-31T20:26:16.995Z,13.28
2022-12-31T20:28:43.386Z,13.31
2022-12-31T20:31:12.784Z,13.31
2022-12-31T20:33:39.529Z,13.25
2022-12-31T20:36:08.840Z,13.22
2022-12-31T20:38:35.271Z,13.18
2022-12-31T20:41:10.818Z,13.18
2022-12-31T20:43:37.203Z,13.18
2022-12-31T20:46:15.665Z,13.17
2022-12-31T20:48:43.716Z,13.23
2022-12-31T20:51:10.216Z,13.18
2022-12-31T20:53:36.523Z,13.15
2022-12-31T20:56:07.362Z,13.14
2022-12-31T20:58:34.153Z,13.13
2022-12-31T21:01:00.585Z,13.15
2022-12-31T21:06:14.674Z,13.11
2022-12-31T21:08:41.821Z,13.13
2022-12-31T21:11:28.769Z,13.09
2022-12-31T21:13:56.610Z,13.17
2022-12-31T21:16:23.056Z,13.14
2022-12-31T21:18:49.363Z,13.09
2022-12-31T21:21:16.059Z,13.17
2022-12-31T21:23:42.420Z,13.16
2022-12-31T21:26:08.741Z,13.16
2022-12-31T21:28:35.175Z,13.07
2022-12-31T21:31:04.017Z,13.13
2022-12-31T21:33:30.484Z,13.10
2022-12-31T21:36:01.191Z,13.04
2022-12-31T21:38:30.878Z,13.01
2022-12-31T21:41:02.711Z,12.99
2022-12-31T21:43:29.134Z,12.98
2022-12-31T21:46:06.767Z,12.96
2022-12-31T21:48:33.708Z,12.97
2022-12-31T21:51:14.006Z,12.94
2022-12-31T21:53:40.501Z,12.90
2022-12-31T21:56:08.634Z,12.88
2022-12-31T21:58:39.700Z,12.89
2022-12-31T22:01:25.785Z,12.88
2022-12-31T22:03:52.444Z,12.77
2022-12-31T22:06:21.640Z,12.75
2022-12-31T22:08:53.669Z,12.70
2022-12-31T22:11:22.323Z,12.63
2022-12-31T22:13:49.184Z,12.57
2022-12-31T22:16:16.933Z,12.49
2022-12-31T22:18:44.053Z,12.49
2022-12-31T22:21:21.760Z,12.45
2022-12-31T22:23:53.837Z,12.46
2022-12-31T22:26:23.283Z,12.45
2022-12-31T22:28:50.310Z,12.40
2022-12-31T22:31:21.430Z,12.51
2022-12-31T22:33:48.083Z,12.46
2022-12-31T22:36:17.324Z,12.41
2022-12-31T22:38:44.401Z,12.31
2022-12-31T22:41:13.695Z,12.35
2022-12-31T22:43:43.357Z,12.37
2022-12-31T22:46:18.352Z,12.31
2022-12-31T22:48:45.392Z,12.32
2022-12-31T22:51:12.958Z,12.26
2022-12-31T22:53:41.043Z,12.26
2022-12-31T22:56:07.914Z,12.31
2022-12-31T22:58:34.685Z,12.23
2022-12-31T23:01:05.888Z,12.14
2022-12-31T23:03:32.799Z,11.95
2022-12-31T23:05:59.226Z,11.96
2022-12-31T23:08:25.711Z,11.91
2022-12-31T23:10:59.532Z,11.93
2022-12-31T23:13:53.517Z,11.87
2022-12-31T23:16:38.787Z,11.88
2022-12-31T23:19:25.104Z,11.81
2022-12-31T23:22:10.230Z,11.88
2022-12-31T23:24:36.804Z,11.85
2022-12-31T23:27:03.344Z,11.80
2022-12-31T23:29:29.668Z,11.86
2022-12-31T23:31:56.086Z,11.85
2022-12-31T23:34:22.744Z,11.83
2022-12-31T23:36:49.085Z,11.78
2022-12-31T23:39:15.451Z,11.72
2022-12-31T23:41:41.834Z,11.72
2022-12-31T23:44:08.241Z,11.71
2022-12-31T23:46:34.606Z,11.76
2022-12-31T23:49:00.921Z,11.80
2022-12-31T23:51:27.216Z,11.82
2022-12-31T23:53:53.517Z,11.90
2022-12-31T23:56:23.557Z,12.00
2022-12-31T23:58:55.176Z,11.93
